Time;durP1;ratioP1;P1;durP2;ratioP2;P2;SDS_P1;SDS_P2;PMS_P1;PMS_P2;Temp;Humidity;BMP_temperature;BMP_pressure;BME280_temperature;BME280_humidity;BME280_pressure;Samples;Min_cycle;Max_cycle;Signal;HPM_P1;HPM_P2
2021/08/15 00:00:18;;;;;;;13.60;6.53;;;;;;;16.56;80.51;101062.22;4945753;28;20106;-87
2021/08/15 00:02:45;;;;;;;13.85;7.60;;;;;;;16.53;80.54;101057.00;4961793;28;20043;-85
2021/08/15 00:05:12;;;;;;;7.60;5.22;;;;;;;16.46;80.51;101048.38;4947891;28;20070;-85
2021/08/15 00:07:39;;;;;;;10.05;5.88;;;;;;;16.42;80.55;101048.53;4944963;28;20058;-86
2021/08/15 00:10:07;;;;;;;9.40;6.18;;;;;;;16.36;80.87;101058.34;4944938;28;20043;-85
2021/08/15 00:12:35;;;;;;;14.80;6.30;;;;;;;16.30;81.10;101055.00;4944654;28;20067;-84
2021/08/15 00:15:02;;;;;;;10.18;5.88;;;;;;;16.25;81.09;101055.13;4960623;28;20037;-85
2021/08/15 00:17:29;;;;;;;12.63;6.05;;;;;;;16.23;81.21;101058.69;4944369;28;20050;-83
2021/08/15 00:19:56;;;;;;;10.65;5.57;;;;;;;16.20;81.19;101057.91;4960085;28;20071;-83
2021/08/15 00:22:22;;;;;;;9.93;5.07;;;;;;;16.19;81.56;101053.50;4944565;28;20122;-82
2021/08/15 00:24:49;;;;;;;14.07;6.70;;;;;;;16.17;81.76;101050.03;4926718;28;20130;-83
2021/08/15 00:27:16;;;;;;;11.65;6.28;;;;;;;16.16;81.58;101056.22;4959952;28;20081;-86
2021/08/15 00:29:42;;;;;;;8.40;6.15;;;;;;;16.14;81.82;101051.88;4943364;28;20174;-84
2021/08/15 00:32:09;;;;;;;9.75;6.25;;;;;;;16.13;81.79;101060.72;4941886;28;20051;-86
2021/08/15 00:34:35;;;;;;;16.17;7.32;;;;;;;16.11;82.06;101049.31;4926842;28;20050;-85
2021/08/15 00:37:02;;;;;;;8.38;5.25;;;;;;;16.09;81.99;101051.13;4943634;28;20430;-86
2021/08/15 00:39:29;;;;;;;12.02;6.80;;;;;;;16.08;82.08;101052.06;4942361;28;20191;-84
2021/08/15 00:41:57;;;;;;;10.05;6.35;;;;;;;16.07;82.02;101045.88;4942268;28;20066;-82
2021/08/15 00:44:23;;;;;;;9.10;5.55;;;;;;;16.07;81.95;101052.97;4941161;28;20138;-82
2021/08/15 00:46:50;;;;;;;7.40;5.38;;;;;;;16.05;81.92;101050.34;4941685;28;20486;-81
2021/08/15 00:49:17;;;;;;;15.48;7.05;;;;;;;16.02;81.94;101053.94;4941752;28;20070;-83
2021/08/15 00:51:44;;;;;;;8.30;6.18;;;;;;;16.00;81.98;101055.75;4956866;28;20051;-85
2021/08/15 00:54:10;;;;;;;6.32;5.45;;;;;;;16.01;81.87;101051.34;4940699;28;20153;-83
2021/08/15 00:56:37;;;;;;;12.10;7.72;;;;;;;15.98;82.10;101049.66;4941197;28;20061;-84
2021/08/15 00:59:08;;;;;;;9.55;5.43;;;;;;;15.96;82.13;101040.88;4924541;29;20582;-82
2021/08/15 01:01:35;;;;;;;12.73;5.97;;;;;;;16.01;82.11;101046.06;4940352;28;20047;-85
2021/08/15 01:04:04;;;;;;;12.85;5.43;;;;;;;16.06;81.84;101043.28;4959401;28;20121;-83
2021/08/15 01:06:35;;;;;;;9.90;5.80;;;;;;;16.10;81.72;101037.03;4924174;28;20796;-87
2021/08/15 01:09:07;;;;;;;10.48;6.05;;;;;;;16.15;81.79;101035.13;4927674;28;20849;-84
2021/08/15 01:11:36;;;;;;;10.20;6.03;;;;;;;16.12;81.74;101033.44;4956537;28;20101;-83
2021/08/15 01:14:06;;;;;;;13.40;7.93;;;;;;;16.08;81.93;101030.94;4941780;28;20180;-85
2021/08/15 01:16:37;;;;;;;8.52;5.68;;;;;;;16.02;81.90;101029.28;4900616;29;20039;-85
2021/08/15 01:19:04;;;;;;;14.73;6.88;;;;;;;15.95;82.63;101030.38;4922601;29;20546;-84
2021/08/15 01:21:31;;;;;;;15.30;6.85;;;;;;;15.88;82.71;101029.66;4925663;29;20047;-87
2021/08/15 01:23:57;;;;;;;13.50;5.88;;;;;;;15.81;82.91;101025.44;4923352;29;20062;-85
2021/08/15 01:26:24;;;;;;;7.97;5.68;;;;;;;15.73;83.59;101022.94;4924282;29;20122;-83
2021/08/15 01:28:54;;;;;;;10.02;7.05;;;;;;;15.68;83.89;101016.91;4926210;29;20198;-86
2021/08/15 01:31:25;;;;;;;10.77;6.88;;;;;;;15.62;84.18;101025.84;4929547;28;20141;-84
2021/08/15 01:33:53;;;;;;;10.23;6.32;;;;;;;15.52;84.53;101017.28;4941266;28;21384;-85
2021/08/15 01:36:22;;;;;;;12.20;6.15;;;;;;;15.46;85.15;101020.06;4925705;28;20050;-86
2021/08/15 01:38:51;;;;;;;14.63;8.82;;;;;;;15.43;85.23;101020.13;4956248;28;20428;-85
2021/08/15 01:41:19;;;;;;;11.68;7.25;;;;;;;15.38;85.38;101014.97;4940824;28;20046;-82
2021/08/15 01:43:55;;;;;;;11.30;6.45;;;;;;;15.34;85.30;101012.44;4958269;28;20520;-86
2021/08/15 01:46:26;;;;;;;12.25;6.05;;;;;;;15.29;85.42;101009.03;4959505;28;20070;-85
2021/08/15 01:48:54;;;;;;;13.80;6.63;;;;;;;15.25;85.55;101012.66;4939464;28;20133;-85
2021/08/15 01:51:21;;;;;;;11.60;6.57;;;;;;;15.20;86.00;101007.47;4966512;28;20047;-87
2021/08/15 01:53:50;;;;;;;8.35;5.50;;;;;;;15.17;85.94;101004.91;4956947;28;20494;-86
2021/08/15 01:56:18;;;;;;;9.20;5.55;;;;;;;15.11;86.16;100998.00;4942505;28;20058;-83
2021/08/15 01:58:45;;;;;;;7.47;6.10;;;;;;;15.10;86.01;101005.97;4943309;28;20057;-82
2021/08/15 02:01:20;;;;;;;13.65;7.55;;;;;;;15.06;86.34;100999.88;4941227;28;20097;-85
2021/08/15 02:03:48;;;;;;;10.65;5.40;;;;;;;15.08;86.33;101002.47;4957258;28;20088;-85
2021/08/15 02:06:17;;;;;;;15.93;6.50;;;;;;;15.09;85.94;101006.84;4956772;28;20062;-88
2021/08/15 02:08:44;;;;;;;12.68;7.18;;;;;;;15.08;85.77;100994.56;4970818;28;20046;-82
2021/08/15 02:11:11;;;;;;;11.32;5.55;;;;;;;15.08;85.73;100992.78;4955674;28;20066;-82
2021/08/15 02:13:37;;;;;;;10.93;5.15;;;;;;;15.08;85.44;100986.66;4929105;28;21067;-85
2021/08/15 02:16:05;;;;;;;10.55;5.50;;;;;;;15.08;85.50;100992.78;4957334;28;20057;-83
2021/08/15 02:18:31;;;;;;;11.77;5.50;;;;;;;15.08;85.10;100999.84;4943786;28;20750;-87
2021/08/15 02:20:58;;;;;;;8.73;5.25;;;;;;;15.03;85.00;100990.28;4941730;28;20054;-83
2021/08/15 02:23:25;;;;;;;8.82;5.18;;;;;;;15.02;85.00;100987.66;4954679;28;20050;-85
2021/08/15 02:25:53;;;;;;;6.28;4.57;;;;;;;15.01;84.93;101005.25;4957389;28;20121;-86
2021/08/15 02:28:19;;;;;;;8.85;5.05;;;;;;;15.02;85.04;100993.81;4945147;28;20042;-83
2021/08/15 02:30:46;;;;;;;5.88;4.22;;;;;;;15.00;84.93;100998.22;4952820;28;20054;-85
2021/08/15 02:33:13;;;;;;;10.20;5.18;;;;;;;14.98;84.69;100996.53;4953191;28;20075;-86
2021/08/15 02:35:39;;;;;;;15.93;8.32;;;;;;;14.98;84.58;100991.25;4936388;28;20130;-85
2021/08/15 02:38:06;;;;;;;5.78;4.13;;;;;;;14.96;84.83;100985.16;4922823;29;20143;-85
2021/08/15 02:40:33;;;;;;;12.15;4.88;;;;;;;14.95;84.70;100988.69;4952510;28;20106;-85
2021/08/15 02:42:59;;;;;;;17.92;5.72;;;;;;;14.96;84.94;100988.66;4935378;28;20055;-82
2021/08/15 02:45:27;;;;;;;11.10;4.95;;;;;;;15.01;84.70;100980.66;4937684;28;20138;-84
2021/08/15 02:47:54;;;;;;;6.32;4.72;;;;;;;15.02;84.28;100977.13;4955563;28;20493;-85
2021/08/15 02:50:21;;;;;;;7.75;5.38;;;;;;;14.98;84.67;100978.06;4957962;28;20062;-85
2021/08/15 02:52:49;;;;;;;7.28;4.88;;;;;;;14.95;84.81;100986.91;4955835;28;20200;-83
2021/08/15 02:55:15;;;;;;;6.45;4.55;;;;;;;14.93;84.64;100996.63;4939903;28;20070;-84
2021/08/15 02:57:43;;;;;;;9.70;4.70;;;;;;;14.87;84.77;100988.84;4939918;28;20545;-82
2021/08/15 03:00:12;;;;;;;12.68;5.65;;;;;;;14.85;85.08;100994.16;4941441;28;20097;-85
2021/08/15 03:02:39;;;;;;;13.55;5.35;;;;;;;14.84;85.35;100986.31;4936144;28;20043;-84
2021/08/15 03:05:08;;;;;;;9.32;5.43;;;;;;;14.86;85.54;100987.13;4935283;28;20052;-86
2021/08/15 03:07:34;;;;;;;8.35;4.55;;;;;;;14.86;85.54;100980.09;4938921;28;20142;-84
2021/08/15 03:10:01;;;;;;;12.38;6.50;;;;;;;14.85;85.60;100966.97;4920842;29;20059;-85
2021/08/15 03:12:28;;;;;;;17.48;9.07;;;;;;;14.84;86.13;100978.41;4949252;28;20077;-86
2021/08/15 03:14:54;;;;;;;11.90;6.57;;;;;;;14.84;86.50;100975.75;4920027;29;20122;-86
2021/08/15 03:17:21;;;;;;;13.32;6.80;;;;;;;14.82;87.19;100973.16;4919798;29;20043;-86
2021/08/15 03:19:48;;;;;;;7.40;5.28;;;;;;;14.77;87.09;100977.66;4923839;28;20052;-81
2021/08/15 03:22:14;;;;;;;14.05;6.88;;;;;;;14.76;87.24;100962.75;4936821;28;20042;-85
2021/08/15 03:24:41;;;;;;;12.98;6.88;;;;;;;14.76;87.87;100961.84;4921097;28;20494;-83
2021/08/15 03:27:09;;;;;;;9.77;6.10;;;;;;;14.75;87.79;100954.88;4939238;28;20053;-81
2021/08/15 03:29:38;;;;;;;12.00;5.85;;;;;;;14.74;88.11;100951.34;4941981;28;20604;-86
2021/08/15 03:32:05;;;;;;;9.90;5.88;;;;;;;14.75;88.06;100946.97;4930011;28;21433;-85
2021/08/15 03:34:32;;;;;;;12.73;5.75;;;;;;;14.75;87.89;100939.91;4912972;28;20051;-82
2021/08/15 03:36:59;;;;;;;7.57;4.97;;;;;;;14.77;88.02;100930.22;4944443;28;21215;-86
2021/08/15 03:39:29;;;;;;;12.88;6.20;;;;;;;14.77;87.94;100922.31;4944656;28;20059;-85
2021/08/15 03:41:58;;;;;;;17.38;11.52;;;;;;;14.75;87.75;100934.66;4947043;28;20524;-84
2021/08/15 03:44:27;;;;;;;12.23;6.38;;;;;;;14.74;87.92;100939.97;4914715;28;20089;-84
2021/08/15 03:46:54;;;;;;;7.93;5.57;;;;;;;14.75;88.15;100942.56;4941463;28;20179;-84
2021/08/15 03:49:20;;;;;;;11.55;6.45;;;;;;;14.72;88.10;100932.09;4927666;28;20059;-82
2021/08/15 03:51:47;;;;;;;13.98;5.68;;;;;;;14.69;88.23;100933.03;4945633;28;20066;-85
2021/08/15 03:54:17;;;;;;;12.15;6.65;;;;;;;14.65;88.32;100926.09;4945014;28;20529;-82
2021/08/15 03:56:44;;;;;;;10.38;5.03;;;;;;;14.60;88.48;100927.03;4933490;28;20170;-83
2021/08/15 03:59:10;;;;;;;8.20;6.13;;;;;;;14.57;88.82;100925.34;4956793;28;20058;-84
2021/08/15 04:01:37;;;;;;;7.47;5.00;;;;;;;14.53;89.07;100923.66;4943089;28;20156;-84
2021/08/15 04:04:04;;;;;;;10.07;5.20;;;;;;;14.50;89.28;100921.09;4943711;28;20180;-86
2021/08/15 04:06:33;;;;;;;13.93;5.75;;;;;;;14.49;89.49;100919.38;4959679;28;20030;-86
2021/08/15 04:09:01;;;;;;;9.15;6.10;;;;;;;14.49;89.55;100924.63;4957984;28;20158;-81
2021/08/15 04:11:29;;;;;;;8.10;5.82;;;;;;;14.49;89.22;100924.63;4958803;28;20054;-82
2021/08/15 04:13:55;;;;;;;9.35;5.57;;;;;;;14.48;89.54;100909.72;4943274;28;20501;-84
2021/08/15 04:16:22;;;;;;;11.93;6.68;;;;;;;14.53;89.39;100918.41;4950285;28;20057;-81
2021/08/15 04:18:49;;;;;;;12.18;7.28;;;;;;;14.56;89.24;100913.06;4974462;28;20046;-84
2021/08/15 04:21:15;;;;;;;11.98;5.80;;;;;;;14.64;88.97;100905.91;4960816;28;20054;-81
2021/08/15 04:23:42;;;;;;;11.45;6.63;;;;;;;14.68;88.85;100897.03;4948958;28;20069;-85
2021/08/15 04:26:12;;;;;;;12.02;6.28;;;;;;;14.70;88.85;100889.09;4961016;28;20077;-82
2021/08/15 04:28:39;;;;;;;13.73;6.10;;;;;;;14.73;88.78;100904.81;4962481;28;20050;-86
2021/08/15 04:31:08;;;;;;;12.25;6.47;;;;;;;14.80;88.70;100898.53;4954991;28;20047;-85
2021/08/15 04:33:34;;;;;;;11.65;6.72;;;;;;;14.84;88.49;100899.31;4954734;28;20054;-85
2021/08/15 04:36:01;;;;;;;10.02;6.05;;;;;;;14.88;88.16;100888.66;4941292;28;20042;-86
2021/08/15 04:38:27;;;;;;;14.70;6.72;;;;;;;14.92;88.19;100883.34;4940702;28;20560;-85
2021/08/15 04:41:02;;;;;;;9.50;6.05;;;;;;;14.98;88.00;100883.16;4941153;28;20077;-85
2021/08/15 04:43:29;;;;;;;11.00;7.00;;;;;;;15.01;87.89;100876.06;4958024;28;20081;-87
2021/08/15 04:45:55;;;;;;;13.15;5.85;;;;;;;15.05;87.69;100871.59;4952136;28;20055;-83
2021/08/15 04:48:22;;;;;;;14.48;6.22;;;;;;;15.08;87.71;100866.22;4960001;28;20051;-86
2021/08/15 04:50:49;;;;;;;13.35;6.47;;;;;;;15.12;87.70;100867.03;4942096;28;20058;-84
2021/08/15 04:53:15;;;;;;;15.32;6.85;;;;;;;15.16;87.55;100871.31;4945449;28;20387;-84
2021/08/15 04:55:42;;;;;;;10.55;6.55;;;;;;;15.17;87.28;100859.88;4926454;28;20076;-83
2021/08/15 04:58:09;;;;;;;14.07;6.18;;;;;;;15.19;87.49;100865.97;4960969;28;20498;-84
2021/08/15 05:00:35;;;;;;;10.13;5.70;;;;;;;15.22;86.99;100869.38;4942566;28;20056;-85
2021/08/15 05:03:02;;;;;;;12.07;6.22;;;;;;;15.26;87.33;100866.69;4942557;28;20053;-86
2021/08/15 05:05:28;;;;;;;11.23;6.45;;;;;;;15.25;87.26;100862.31;4929911;28;20058;-84
2021/08/15 05:07:55;;;;;;;9.65;6.22;;;;;;;15.25;87.23;100868.44;4973294;28;20046;-82
2021/08/15 05:10:21;;;;;;;11.52;6.10;;;;;;;15.26;87.22;100870.19;4943541;28;20050;-84
2021/08/15 05:12:48;;;;;;;10.82;6.00;;;;;;;15.31;87.23;100872.72;4941764;28;20057;-83
2021/08/15 05:15:15;;;;;;;15.30;6.13;;;;;;;15.31;87.21;100868.31;4940624;28;20129;-83
2021/08/15 05:17:41;;;;;;;13.07;6.75;;;;;;;15.34;87.22;100870.88;4943419;28;20609;-87
2021/08/15 05:20:08;;;;;;;13.82;7.53;;;;;;;15.37;86.77;100868.16;4938689;28;20521;-84
2021/08/15 05:22:35;;;;;;;11.75;7.43;;;;;;;15.43;86.91;100879.47;4943720;28;20053;-82
2021/08/15 05:25:02;;;;;;;9.93;5.18;;;;;;;15.43;86.58;100879.47;4943315;28;20398;-82
2021/08/15 05:27:29;;;;;;;10.05;6.20;;;;;;;15.46;86.62;100882.00;4942051;28;20081;-86
2021/08/15 05:29:55;;;;;;;13.80;6.78;;;;;;;15.50;86.59;100884.53;4943732;28;20065;-85
2021/08/15 05:32:22;;;;;;;12.25;6.47;;;;;;;15.57;86.33;100877.31;4955592;28;20077;-80
2021/08/15 05:34:49;;;;;;;14.88;6.85;;;;;;;15.64;86.22;100868.31;4925995;28;20528;-82
2021/08/15 05:37:15;;;;;;;9.30;6.50;;;;;;;15.71;85.81;100876.97;4941865;28;20979;-83
2021/08/15 05:39:42;;;;;;;8.23;5.40;;;;;;;15.79;85.18;100879.41;4945318;28;20092;-82
2021/08/15 05:42:09;;;;;;;14.65;6.75;;;;;;;15.83;85.61;100879.28;4951543;28;20034;-81
2021/08/15 05:44:45;;;;;;;11.52;6.10;;;;;;;15.91;85.11;100879.09;4952527;28;20054;-82
2021/08/15 05:47:14;;;;;;;15.60;6.70;;;;;;;15.98;84.66;100891.22;4958688;28;20027;-82
2021/08/15 05:49:44;;;;;;;10.20;5.00;;;;;;;16.05;84.51;100894.56;4956627;28;20057;-83
2021/08/15 05:52:11;;;;;;;9.20;5.38;;;;;;;16.10;84.50;100890.00;4954502;28;20054;-81
2021/08/15 05:54:41;;;;;;;12.80;6.43;;;;;;;16.12;84.30;100898.75;4948110;28;20039;-82
2021/08/15 05:57:10;;;;;;;9.63;6.07;;;;;;;16.12;84.32;100890.81;4965201;28;20074;-86
2021/08/15 05:59:37;;;;;;;10.40;5.70;;;;;;;16.10;84.52;100890.00;4933841;28;20055;-83
2021/08/15 06:02:04;;;;;;;11.50;5.60;;;;;;;16.08;84.41;100886.53;4942948;28;20516;-86
2021/08/15 06:04:31;;;;;;;9.20;6.38;;;;;;;16.07;84.74;100876.03;4943650;28;20118;-85
2021/08/15 06:06:57;;;;;;;10.95;5.35;;;;;;;16.03;84.91;100886.69;4944933;28;20047;-89
2021/08/15 06:09:24;;;;;;;8.25;5.88;;;;;;;16.06;84.86;100876.94;4941964;28;20141;-82
2021/08/15 06:11:50;;;;;;;10.77;5.97;;;;;;;16.08;84.72;100885.69;4957906;28;20113;-87
2021/08/15 06:14:17;;;;;;;11.57;6.95;;;;;;;16.14;84.71;100882.84;4938827;28;20047;-88
2021/08/15 06:16:45;;;;;;;8.85;5.95;;;;;;;16.19;84.57;100873.00;4967678;28;20055;-83
2021/08/15 06:19:12;;;;;;;11.23;5.93;;;;;;;16.28;84.54;100882.47;4940918;28;20051;-87
2021/08/15 06:21:39;;;;;;;9.10;5.55;;;;;;;16.38;83.97;100882.13;4926983;28;20106;-84
2021/08/15 06:24:09;;;;;;;13.07;6.55;;;;;;;16.51;83.57;100885.28;4933076;28;20055;-85
2021/08/15 06:26:36;;;;;;;12.88;6.57;;;;;;;16.70;83.02;100882.09;4975375;28;20513;-85
2021/08/15 06:29:03;;;;;;;11.07;5.72;;;;;;;16.89;82.27;100885.03;4962970;28;20426;-86
2021/08/15 06:31:29;;;;;;;11.93;7.03;;;;;;;17.15;81.47;100878.06;4966744;28;20042;-88
2021/08/15 06:33:57;;;;;;;9.68;6.00;;;;;;;17.41;80.36;100877.19;4945569;28;20080;-86
2021/08/15 06:36:24;;;;;;;13.93;6.32;;;;;;;17.70;78.96;100875.31;4945452;28;20042;-82
2021/08/15 06:38:51;;;;;;;14.65;6.03;;;;;;;17.97;77.90;100880.59;4960825;28;23548;-87
2021/08/15 06:41:17;;;;;;;11.02;5.50;;;;;;;18.23;76.92;100876.97;4948888;28;20900;-84
2021/08/15 06:43:44;;;;;;;13.98;6.28;;;;;;;18.47;75.86;100872.53;4958287;28;20070;-86
2021/08/15 06:46:12;;;;;;;14.27;6.15;;;;;;;18.69;74.56;100866.38;4960104;28;20038;-88
2021/08/15 06:48:40;;;;;;;15.38;7.25;;;;;;;18.84;73.80;100863.13;4961390;28;20069;-88
2021/08/15 06:51:07;;;;;;;11.63;5.72;;;;;;;18.92;73.46;100867.31;4952618;28;20078;-86
2021/08/15 06:53:35;;;;;;;10.48;5.68;;;;;;;18.91;73.38;100862.91;4961261;28;20046;-86
2021/08/15 06:56:04;;;;;;;12.18;6.25;;;;;;;18.98;73.20;100849.34;4926525;28;20054;-88
2021/08/15 06:58:32;;;;;;;9.77;6.30;;;;;;;19.06;72.65;100853.47;4944760;28;20054;-88
2021/08/15 07:00:59;;;;;;;12.98;6.40;;;;;;;19.15;72.44;100863.69;4938921;28;20750;-87
2021/08/15 07:03:25;;;;;;;13.50;6.45;;;;;;;19.33;71.59;100862.06;4929423;28;20043;-85
2021/08/15 07:05:52;;;;;;;8.68;6.20;;;;;;;19.53;70.83;100863.00;4931249;28;20066;-82
2021/08/15 07:08:19;;;;;;;13.13;7.03;;;;;;;19.76;69.49;100862.84;4915491;28;20047;-86
2021/08/15 07:10:47;;;;;;;17.77;7.30;;;;;;;19.89;68.86;100862.34;4914635;28;20055;-84
2021/08/15 07:13:16;;;;;;;13.13;5.72;;;;;;;19.99;68.94;100867.19;4928026;28;20046;-89
2021/08/15 07:15:43;;;;;;;12.30;6.97;;;;;;;20.09;68.49;100870.31;4936517;28;20055;-85
2021/08/15 07:18:10;;;;;;;13.32;6.28;;;;;;;20.16;68.21;100855.78;4950629;28;20050;-87
2021/08/15 07:20:36;;;;;;;8.93;5.07;;;;;;;20.33;67.96;100856.81;4948790;28;20093;-87
2021/08/15 07:23:03;;;;;;;8.40;5.50;;;;;;;20.42;67.47;100850.22;4950127;28;20050;-87
2021/08/15 07:25:30;;;;;;;10.55;5.97;;;;;;;20.57;66.78;100851.25;4929014;28;20649;-87
2021/08/15 07:28:00;;;;;;;9.52;5.85;;;;;;;20.70;66.40;100849.75;4917342;28;21074;-84
2021/08/15 07:30:27;;;;;;;10.80;5.72;;;;;;;20.87;65.66;100853.41;4962379;28;20046;-86
2021/08/15 07:32:57;;;;;;;11.00;6.18;;;;;;;21.05;64.80;100844.50;4949406;28;20059;-89
2021/08/15 07:35:25;;;;;;;12.40;5.82;;;;;;;21.23;64.36;100845.38;4947816;28;20072;-86
2021/08/15 07:37:52;;;;;;;11.13;6.15;;;;;;;21.37;63.41;100850.03;4948266;28;20511;-89
2021/08/15 07:40:19;;;;;;;11.40;5.72;;;;;;;21.54;63.11;100853.63;4947610;28;20055;-83
2021/08/15 07:42:50;;;;;;;8.63;4.75;;;;;;;21.69;62.68;100839.50;4946298;28;20127;-89
2021/08/15 07:45:23;;;;;;;9.90;5.45;;;;;;;21.79;61.90;100855.88;4929991;28;20113;-87
2021/08/15 07:47:49;;;;;;;12.63;6.70;;;;;;;21.78;61.53;100854.16;4944008;28;20066;-86
2021/08/15 07:50:18;;;;;;;10.40;5.82;;;;;;;21.75;61.29;100865.84;4960845;28;20150;-90
2021/08/15 07:52:45;;;;;;;11.65;6.22;;;;;;;21.72;61.42;100858.03;4926564;29;20594;-85
2021/08/15 07:55:12;;;;;;;14.57;5.85;;;;;;;21.71;61.21;100861.63;4926834;29;20066;-84
2021/08/15 07:57:40;;;;;;;10.48;6.05;;;;;;;21.66;61.04;100849.50;4927249;29;20057;-89
2021/08/15 08:00:08;;;;;;;11.68;5.88;;;;;;;21.55;60.87;100864.22;4925742;28;20047;-85
2021/08/15 08:02:35;;;;;;;12.27;6.30;;;;;;;21.45;61.21;100865.59;4913368;29;20604;-87
2021/08/15 08:05:02;;;;;;;15.73;6.97;;;;;;;21.43;61.27;100859.50;4924188;29;20141;-90
2021/08/15 08:07:28;;;;;;;11.55;6.00;;;;;;;21.50;61.20;100850.25;4909006;29;22701;-85
2021/08/15 08:09:55;;;;;;;10.85;5.63;;;;;;;21.82;60.39;100847.72;4942034;28;20043;-84
2021/08/15 08:12:22;;;;;;;10.63;6.63;;;;;;;22.30;58.99;100848.66;4922835;28;20114;-83
2021/08/15 08:14:49;;;;;;;13.73;6.72;;;;;;;22.74;56.64;100846.31;4940575;28;20126;-87
2021/08/15 08:17:20;;;;;;;10.05;6.57;;;;;;;22.99;56.76;100851.09;4938049;28;21263;-90
2021/08/15 08:19:47;;;;;;;13.60;7.30;;;;;;;23.02;56.42;100839.38;4896802;28;20050;-89
2021/08/15 08:22:15;;;;;;;11.95;6.72;;;;;;;22.88;56.74;100840.16;4926016;28;20071;-86
2021/08/15 08:24:41;;;;;;;10.10;6.22;;;;;;;22.73;57.04;100844.59;4941842;28;20051;-88
2021/08/15 08:27:08;;;;;;;10.70;6.72;;;;;;;22.93;56.83;100841.63;4942984;28;21552;-89
2021/08/15 08:29:34;;;;;;;14.23;6.80;;;;;;;23.52;54.69;100829.31;4925672;28;20119;-85
2021/08/15 08:32:01;;;;;;;12.27;6.20;;;;;;;24.05;54.04;100835.03;4957562;28;20061;-86
2021/08/15 08:34:28;;;;;;;12.90;6.93;;;;;;;24.28;52.14;100834.41;4957988;28;20070;-90
2021/08/15 08:36:54;;;;;;;10.65;6.80;;;;;;;24.68;51.98;100833.69;4944629;28;20152;-84
2021/08/15 08:39:21;;;;;;;11.77;6.10;;;;;;;25.52;49.85;100837.03;4946666;28;20126;-89
2021/08/15 08:41:48;;;;;;;11.50;6.63;;;;;;;26.55;47.32;100822.63;4959399;28;20110;-85
2021/08/15 08:44:15;;;;;;;8.25;5.57;;;;;;;27.70;44.82;100813.06;4960173;28;20046;-88
2021/08/15 08:46:43;;;;;;;12.52;7.00;;;;;;;28.36;42.76;100814.13;4964734;28;20062;-86
2021/08/15 08:49:16;;;;;;;9.65;7.28;;;;;;;28.84;41.54;100812.94;4945254;28;20059;-85
2021/08/15 08:51:43;;;;;;;12.70;7.00;;;;;;;28.96;40.79;100811.03;4942298;28;20074;-84
2021/08/15 08:54:10;;;;;;;10.27;6.70;;;;;;;29.00;39.91;100802.53;4943355;28;20136;-89
2021/08/15 08:56:37;;;;;;;8.25;6.45;;;;;;;29.01;40.05;100804.25;4914852;28;20062;-86
2021/08/15 08:59:03;;;;;;;7.03;5.72;;;;;;;29.40;39.19;100792.94;4923003;28;20886;-87
2021/08/15 09:01:30;;;;;;;8.60;6.13;;;;;;;29.66;38.68;100806.81;4947145;28;20465;-88
2021/08/15 09:03:59;;;;;;;13.75;7.22;;;;;;;29.55;37.70;100809.59;4915810;28;20066;-88
2021/08/15 09:06:28;;;;;;;9.55;7.18;;;;;;;29.29;38.09;100799.22;4946352;28;20047;-88
2021/08/15 09:08:55;;;;;;;9.02;6.22;;;;;;;29.66;38.32;100792.47;4928650;28;21476;-84
2021/08/15 09:11:27;;;;;;;10.85;7.93;;;;;;;29.88;36.71;100796.84;4945672;28;20109;-90
2021/08/15 09:14:31;;;;;;;9.93;6.10;;;;;;;29.66;36.47;100796.03;4944918;28;20051;-84
2021/08/15 09:17:08;;;;;;;10.38;5.85;;;;;;;30.03;35.40;100790.09;4942020;28;20102;-92
2021/08/15 09:19:42;;;;;;;11.02;5.90;;;;;;;29.43;35.76;100773.78;4927526;28;20473;-90
2021/08/15 09:22:26;;;;;;;5.82;5.22;;;;;;;29.38;36.05;100781.41;4945706;28;20986;-87
2021/08/15 09:25:18;;;;;;;6.95;4.57;;;;;;;29.18;36.63;100777.72;4930193;28;20070;-89
2021/08/15 09:27:49;;;;;;;8.70;5.78;;;;;;;29.27;36.92;100771.56;4942643;28;20050;-83
2021/08/15 09:30:34;;;;;;;10.43;5.15;;;;;;;28.19;38.10;100777.84;4929064;28;20047;-88
2021/08/15 09:33:07;;;;;;;7.10;4.63;;;;;;;27.61;39.23;100762.66;4929696;28;20059;-86
2021/08/15 09:35:36;;;;;;;8.70;5.20;;;;;;;27.01;41.17;100778.94;4927152;28;20443;-89
2021/08/15 09:38:10;;;;;;;8.65;5.50;;;;;;;27.10;41.15;100769.28;4942796;28;20085;-83
2021/08/15 09:40:42;;;;;;;7.70;4.55;;;;;;;27.58;40.32;100768.31;4943512;28;20051;-89
2021/08/15 09:43:21;;;;;;;8.73;5.05;;;;;;;27.86;39.00;100766.97;4915341;28;20055;-90
2021/08/15 09:45:58;;;;;;;7.75;4.72;;;;;;;27.86;39.80;100764.28;4930831;28;20046;-84
2021/08/15 09:48:29;;;;;;;10.55;5.57;;;;;;;27.67;40.18;100772.94;4941803;28;20150;-83
2021/08/15 09:51:16;;;;;;;14.75;7.00;;;;;;;26.92;41.89;100776.94;4936295;28;20423;-87
2021/08/15 09:54:00;;;;;;;9.32;6.22;;;;;;;26.48;43.01;100773.03;4938521;28;20074;-91
2021/08/15 09:56:41;;;;;;;9.65;7.30;;;;;;;26.51;43.08;100775.53;4925147;28;20078;-86
2021/08/15 09:59:22;;;;;;;8.55;7.22;;;;;;;26.74;42.39;100779.19;4939300;28;20051;-90
2021/08/15 10:01:51;;;;;;;9.40;7.18;;;;;;;26.18;43.85;100785.94;4936859;28;20046;-85
2021/08/15 10:04:19;;;;;;;14.35;8.05;;;;;;;25.97;44.52;100774.03;4944832;28;20395;-87
2021/08/15 10:06:50;;;;;;;11.38;7.10;;;;;;;26.13;44.16;100774.69;4945733;28;20050;-90
2021/08/15 10:09:17;;;;;;;9.85;7.00;;;;;;;26.34;43.96;100766.03;4942182;28;20057;-84
2021/08/15 10:11:45;;;;;;;9.65;7.28;;;;;;;26.96;42.99;100756.06;4927278;28;20047;-89
2021/08/15 10:14:13;;;;;;;9.68;6.32;;;;;;;27.68;41.76;100761.22;4943217;28;20108;-90
2021/08/15 10:16:59;;;;;;;10.80;7.15;;;;;;;28.01;40.15;100756.78;4925716;28;20050;-84
2021/08/15 10:19:38;;;;;;;11.60;7.07;;;;;;;28.56;39.85;100755.94;4960309;28;20084;-85
2021/08/15 10:22:06;;;;;;;9.15;5.45;;;;;;;29.22;38.22;100752.19;4944371;28;21623;-86
2021/08/15 10:24:54;;;;;;;7.70;5.80;;;;;;;29.34;38.09;100750.31;4928668;28;20047;-91
2021/08/15 10:27:42;;;;;;;7.72;5.20;;;;;;;29.34;36.92;100750.31;4946880;28;20126;-90
2021/08/15 10:30:15;;;;;;;9.00;5.15;;;;;;;28.98;37.34;100741.69;4957898;28;20501;-91
2021/08/15 10:32:57;;;;;;;4.30;3.90;;;;;;;28.84;37.91;100741.03;4954675;28;20054;-89
2021/08/15 10:35:38;;;;;;;8.77;4.40;;;;;;;28.57;37.91;100730.72;4955035;28;20061;-92
2021/08/15 10:38:04;;;;;;;7.35;4.95;;;;;;;28.37;38.85;100732.41;4940786;28;20047;-84
2021/08/15 10:40:40;;;;;;;8.38;4.05;;;;;;;27.79;39.48;100730.75;4956209;28;20073;-86
2021/08/15 10:43:15;;;;;;;12.35;4.57;;;;;;;27.77;39.63;100724.66;4942867;28;20617;-88
2021/08/15 10:45:42;;;;;;;7.13;4.55;;;;;;;27.75;40.20;100723.91;4942499;28;20059;-89
2021/08/15 10:48:12;;;;;;;8.35;4.65;;;;;;;28.34;39.03;100722.75;4958757;28;20510;-88
2021/08/15 10:50:56;;;;;;;6.20;4.13;;;;;;;29.42;37.62;100728.91;4937496;28;20087;-85
2021/08/15 10:53:29;;;;;;;9.25;4.47;;;;;;;30.54;35.09;100717.16;4923184;29;20062;-83
2021/08/15 10:56:09;;;;;;;7.20;4.22;;;;;;;29.92;35.38;100714.66;4947431;28;20051;-86
2021/08/15 10:58:42;;;;;;;5.38;3.55;;;;;;;29.76;36.16;100715.13;4924539;29;20043;-85
2021/08/15 11:01:13;;;;;;;;;;;;;;;29.81;35.78;100712.03;4938076;28;20050;-87
2021/08/15 11:03:49;;;;;;;5.22;3.95;;;;;;;29.69;35.89;100712.13;4933982;28;19930;-83
2021/08/15 11:06:31;;;;;;;7.00;3.63;;;;;;;30.61;33.70;100706.63;4961000;28;20078;-83
2021/08/15 11:09:05;;;;;;;4.20;3.25;;;;;;;32.09;31.72;100699.72;4944429;28;20047;-86
2021/08/15 11:11:34;;;;;;;7.68;3.92;;;;;;;33.02;30.14;100693.94;4924434;28;20111;-84
2021/08/15 11:14:19;;;;;;;9.70;3.58;;;;;;;31.39;31.94;100700.22;4949031;28;20107;-87
2021/08/15 11:16:48;;;;;;;10.20;4.03;;;;;;;30.60;33.68;100702.22;4955580;28;20043;-85
2021/08/15 11:19:15;;;;;;;6.05;4.57;;;;;;;30.92;33.41;100695.63;4948043;28;20053;-83
2021/08/15 11:22:13;;;;;;;6.90;3.75;;;;;;;31.60;31.68;100697.25;4964385;28;20086;-90
2021/08/15 11:24:46;;;;;;;6.43;4.10;;;;;;;33.23;29.51;100682.72;4948660;28;20145;-87
2021/08/15 11:27:22;;;;;;;5.85;3.20;;;;;;;34.60;28.17;100679.88;4970881;28;20047;-84